sensor_id;sensor_type;location;lat;lon;timestamp;temperature;humidity
77839;SHT31;67034;43.226;27.932;2023-03-03T00:01:59;5.73;78.39
77839;SHT31;67034;43.226;27.932;2023-03-03T00:04:24;5.85;77.77
77839;SHT31;67034;43.226;27.932;2023-03-03T00:06:50;5.79;78.01
77839;SHT31;67034;43.226;27.932;2023-03-03T00:09:16;5.76;78.23
77839;SHT31;67034;43.226;27.932;2023-03-03T00:11:43;5.81;77.74
77839;SHT31;67034;43.226;27.932;2023-03-03T00:14:18;5.69;78.25
77839;SHT31;67034;43.226;27.932;2023-03-03T00:16:46;5.79;78.12
77839;SHT31;67034;43.226;27.932;2023-03-03T00:19:14;5.73;78.07
77839;SHT31;67034;43.226;27.932;2023-03-03T00:21:43;5.80;77.63
77839;SHT31;67034;43.226;27.932;2023-03-03T00:24:21;5.89;77.48
77839;SHT31;67034;43.226;27.932;2023-03-03T00:26:49;5.86;77.27
77839;SHT31;67034;43.226;27.932;2023-03-03T00:29:29;5.86;77.60
77839;SHT31;67034;43.226;27.932;2023-03-03T00:32:02;5.86;77.01
77839;SHT31;67034;43.226;27.932;2023-03-03T00:34:35;5.81;77.57
77839;SHT31;67034;43.226;27.932;2023-03-03T00:37:01;5.94;77.13
77839;SHT31;67034;43.226;27.932;2023-03-03T00:39:30;5.90;76.94
77839;SHT31;67034;43.226;27.932;2023-03-03T00:41:59;5.93;76.84
77839;SHT31;67034;43.226;27.932;2023-03-03T00:44:38;5.91;76.89
77839;SHT31;67034;43.226;27.932;2023-03-03T00:47:27;5.98;76.18
77839;SHT31;67034;43.226;27.932;2023-03-03T00:49:58;5.98;76.25
77839;SHT31;67034;43.226;27.932;2023-03-03T00:52:26;6.01;75.92
77839;SHT31;67034;43.226;27.932;2023-03-03T00:54:53;5.89;76.46
77839;SHT31;67034;43.226;27.932;2023-03-03T00:57:20;5.86;76.44
77839;SHT31;67034;43.226;27.932;2023-03-03T00:59:45;5.91;76.30
77839;SHT31;67034;43.226;27.932;2023-03-03T01:02:11;5.87;75.97
77839;SHT31;67034;43.226;27.932;2023-03-03T01:04:37;5.90;75.72
77839;SHT31;67034;43.226;27.932;2023-03-03T01:07:03;5.85;76.21
77839;SHT31;67034;43.226;27.932;2023-03-03T01:09:28;5.74;76.08
77839;SHT31;67034;43.226;27.932;2023-03-03T01:11:54;5.80;75.51
77839;SHT31;67034;43.226;27.932;2023-03-03T01:14:22;5.86;75.47
77839;SHT31;67034;43.226;27.932;2023-03-03T01:16:47;5.71;75.97
77839;SHT31;67034;43.226;27.932;2023-03-03T01:19:14;5.77;75.36
77839;SHT31;67034;43.226;27.932;2023-03-03T01:21:39;5.74;75.50
77839;SHT31;67034;43.226;27.932;2023-03-03T01:24:05;5.69;76.50
77839;SHT31;67034;43.226;27.932;2023-03-03T01:26:31;5.59;77.00
77839;SHT31;67034;43.226;27.932;2023-03-03T01:28:56;5.49;77.39
77839;SHT31;67034;43.226;27.932;2023-03-03T01:31:23;5.53;77.13
77839;SHT31;67034;43.226;27.932;2023-03-03T01:33:49;5.56;76.92
77839;SHT31;67034;43.226;27.932;2023-03-03T01:36:15;5.56;77.35
77839;SHT31;67034;43.226;27.932;2023-03-03T01:38:40;5.52;77.92
77839;SHT31;67034;43.226;27.932;2023-03-03T01:41:07;5.63;77.88
77839;SHT31;67034;43.226;27.932;2023-03-03T01:43:33;5.65;77.84
77839;SHT31;67034;43.226;27.932;2023-03-03T01:48:44;5.85;77.18
77839;SHT31;67034;43.226;27.932;2023-03-03T01:51:17;5.87;76.51
77839;SHT31;67034;43.226;27.932;2023-03-03T01:53:47;5.83;76.88
77839;SHT31;67034;43.226;27.932;2023-03-03T01:56:13;5.93;76.45
77839;SHT31;67034;43.226;27.932;2023-03-03T01:58:41;5.91;76.53
77839;SHT31;67034;43.226;27.932;2023-03-03T02:01:11;5.89;76.77
77839;SHT31;67034;43.226;27.932;2023-03-03T02:03:39;5.94;76.17
77839;SHT31;67034;43.226;27.932;2023-03-03T02:06:10;5.86;76.20
77839;SHT31;67034;43.226;27.932;2023-03-03T02:08:41;5.80;76.77
77839;SHT31;67034;43.226;27.932;2023-03-03T02:11:09;5.45;78.17
77839;SHT31;67034;43.226;27.932;2023-03-03T02:13:35;5.62;77.68
77839;SHT31;67034;43.226;27.932;2023-03-03T02:16:01;5.65;77.49
77839;SHT31;67034;43.226;27.932;2023-03-03T02:18:27;5.62;77.44
77839;SHT31;67034;43.226;27.932;2023-03-03T02:20:57;5.62;77.15
77839;SHT31;67034;43.226;27.932;2023-03-03T02:23:29;5.49;77.95
77839;SHT31;67034;43.226;27.932;2023-03-03T02:26:05;5.36;78.63
77839;SHT31;67034;43.226;27.932;2023-03-03T02:28:33;5.18;78.72
77839;SHT31;67034;43.226;27.932;2023-03-03T02:31:00;5.11;79.36
77839;SHT31;67034;43.226;27.932;2023-03-03T02:33:26;5.14;79.68
77839;SHT31;67034;43.226;27.932;2023-03-03T02:35:53;5.22;79.38
77839;SHT31;67034;43.226;27.932;2023-03-03T02:38:21;5.46;78.10
77839;SHT31;67034;43.226;27.932;2023-03-03T02:40:58;5.38;78.39
77839;SHT31;67034;43.226;27.932;2023-03-03T02:43:29;5.36;78.39
77839;SHT31;67034;43.226;27.932;2023-03-03T02:45:56;5.35;78.44
77839;SHT31;67034;43.226;27.932;2023-03-03T02:48:22;5.27;78.45
77839;SHT31;67034;43.226;27.932;2023-03-03T02:50:47;5.34;78.25
77839;SHT31;67034;43.226;27.932;2023-03-03T02:53:13;5.32;78.35
77839;SHT31;67034;43.226;27.932;2023-03-03T02:55:39;5.27;78.96
77839;SHT31;67034;43.226;27.932;2023-03-03T02:58:04;5.21;78.87
77839;SHT31;67034;43.226;27.932;2023-03-03T03:00:31;5.25;78.89
77839;SHT31;67034;43.226;27.932;2023-03-03T03:02:57;5.12;79.22
77839;SHT31;67034;43.226;27.932;2023-03-03T03:05:23;5.12;79.01
77839;SHT31;67034;43.226;27.932;2023-03-03T03:07:49;5.27;78.77
77839;SHT31;67034;43.226;27.932;2023-03-03T03:10:14;5.35;78.64
77839;SHT31;67034;43.226;27.932;2023-03-03T03:12:40;5.29;79.09
77839;SHT31;67034;43.226;27.932;2023-03-03T03:15:06;5.42;78.46
77839;SHT31;67034;43.226;27.932;2023-03-03T03:17:36;5.48;77.60
77839;SHT31;67034;43.226;27.932;2023-03-03T03:20:02;5.48;77.59
77839;SHT31;67034;43.226;27.932;2023-03-03T03:22:28;5.31;78.41
77839;SHT31;67034;43.226;27.932;2023-03-03T03:24:53;5.35;78.28
77839;SHT31;67034;43.226;27.932;2023-03-03T03:27:19;5.32;78.41
77839;SHT31;67034;43.226;27.932;2023-03-03T03:29:45;5.32;79.19
77839;SHT31;67034;43.226;27.932;2023-03-03T03:32:10;5.19;79.31
77839;SHT31;67034;43.226;27.932;2023-03-03T03:34:38;5.21;78.93
77839;SHT31;67034;43.226;27.932;2023-03-03T03:37:04;5.22;78.58
77839;SHT31;67034;43.226;27.932;2023-03-03T03:39:29;5.17;78.88
77839;SHT31;67034;43.226;27.932;2023-03-03T03:41:55;5.18;78.72
77839;SHT31;67034;43.226;27.932;2023-03-03T03:44:21;5.12;79.20
77839;SHT31;67034;43.226;27.932;2023-03-03T03:46:48;5.08;78.98
77839;SHT31;67034;43.226;27.932;2023-03-03T03:49:14;4.90;79.75
77839;SHT31;67034;43.226;27.932;2023-03-03T03:51:41;4.98;79.23
77839;SHT31;67034;43.226;27.932;2023-03-03T03:54:06;5.11;78.87
77839;SHT31;67034;43.226;27.932;2023-03-03T03:56:32;5.19;78.15
77839;SHT31;67034;43.226;27.932;2023-03-03T03:58:58;5.21;78.25
77839;SHT31;67034;43.226;27.932;2023-03-03T04:01:25;5.01;79.35
77839;SHT31;67034;43.226;27.932;2023-03-03T04:03:51;4.95;79.80
77839;SHT31;67034;43.226;27.932;2023-03-03T04:06:16;4.88;80.45
77839;SHT31;67034;43.226;27.932;2023-03-03T04:08:43;5.05;78.69
77839;SHT31;67034;43.226;27.932;2023-03-03T04:11:09;5.14;78.70
77839;SHT31;67034;43.226;27.932;2023-03-03T04:13:35;4.98;79.62
77839;SHT31;67034;43.226;27.932;2023-03-03T04:16:01;5.12;78.57
77839;SHT31;67034;43.226;27.932;2023-03-03T04:18:27;5.18;79.33
77839;SHT31;67034;43.226;27.932;2023-03-03T04:20:52;5.15;80.14
77839;SHT31;67034;43.226;27.932;2023-03-03T04:23:19;4.90;80.21
77839;SHT31;67034;43.226;27.932;2023-03-03T04:25:46;4.85;80.26
77839;SHT31;67034;43.226;27.932;2023-03-03T04:28:12;4.76;80.17
77839;SHT31;67034;43.226;27.932;2023-03-03T04:30:38;4.48;80.49
77839;SHT31;67034;43.226;27.932;2023-03-03T04:33:04;4.43;81.56
77839;SHT31;67034;43.226;27.932;2023-03-03T04:35:29;4.56;81.69
77839;SHT31;67034;43.226;27.932;2023-03-03T04:37:55;4.87;80.76
77839;SHT31;67034;43.226;27.932;2023-03-03T04:40:21;5.04;79.89
77839;SHT31;67034;43.226;27.932;2023-03-03T04:42:48;5.05;79.96
77839;SHT31;67034;43.226;27.932;2023-03-03T04:45:14;5.07;80.30
77839;SHT31;67034;43.226;27.932;2023-03-03T04:47:40;4.85;80.65
77839;SHT31;67034;43.226;27.932;2023-03-03T04:50:07;4.77;81.25
77839;SHT31;67034;43.226;27.932;2023-03-03T04:52:33;4.84;81.24
77839;SHT31;67034;43.226;27.932;2023-03-03T04:54:59;4.92;80.41
77839;SHT31;67034;43.226;27.932;2023-03-03T04:57:25;4.97;80.38
77839;SHT31;67034;43.226;27.932;2023-03-03T04:59:52;5.07;79.76
77839;SHT31;67034;43.226;27.932;2023-03-03T05:02:18;5.10;79.67
77839;SHT31;67034;43.226;27.932;2023-03-03T05:04:44;5.15;79.00
77839;SHT31;67034;43.226;27.932;2023-03-03T05:07:10;5.27;78.41
77839;SHT31;67034;43.226;27.932;2023-03-03T05:09:36;5.46;77.33
77839;SHT31;67034;43.226;27.932;2023-03-03T05:12:02;5.07;79.34
77839;SHT31;67034;43.226;27.932;2023-03-03T05:14:27;5.22;78.82
77839;SHT31;67034;43.226;27.932;2023-03-03T05:16:54;5.01;78.57
77839;SHT31;67034;43.226;27.932;2023-03-03T05:19:21;4.67;79.98
77839;SHT31;67034;43.226;27.932;2023-03-03T05:21:46;4.56;80.67
77839;SHT31;67034;43.226;27.932;2023-03-03T05:24:13;4.63;80.69
77839;SHT31;67034;43.226;27.932;2023-03-03T05:26:39;4.77;80.56
77839;SHT31;67034;43.226;27.932;2023-03-03T05:29:05;4.87;80.12
77839;SHT31;67034;43.226;27.932;2023-03-03T05:31:31;4.85;80.57
77839;SHT31;67034;43.226;27.932;2023-03-03T05:33:59;4.76;81.41
77839;SHT31;67034;43.226;27.932;2023-03-03T05:36:24;4.57;80.33
77839;SHT31;67034;43.226;27.932;2023-03-03T05:38:50;4.53;80.86
77839;SHT31;67034;43.226;27.932;2023-03-03T05:41:16;4.53;81.17
77839;SHT31;67034;43.226;27.932;2023-03-03T05:43:42;4.54;81.44
77839;SHT31;67034;43.226;27.932;2023-03-03T05:46:08;4.61;81.61
77839;SHT31;67034;43.226;27.932;2023-03-03T05:48:34;4.73;81.55
77839;SHT31;67034;43.226;27.932;2023-03-03T05:51:01;4.83;81.07
77839;SHT31;67034;43.226;27.932;2023-03-03T05:53:27;5.00;80.69
77839;SHT31;67034;43.226;27.932;2023-03-03T05:55:53;4.98;80.64
77839;SHT31;67034;43.226;27.932;2023-03-03T05:58:18;5.12;80.09
77839;SHT31;67034;43.226;27.932;2023-03-03T06:00:44;5.27;79.62
77839;SHT31;67034;43.226;27.932;2023-03-03T06:03:10;5.35;78.93
77839;SHT31;67034;43.226;27.932;2023-03-03T06:05:36;5.43;78.08
77839;SHT31;67034;43.226;27.932;2023-03-03T06:08:03;5.52;77.48
77839;SHT31;67034;43.226;27.932;2023-03-03T06:10:29;5.52;77.38
77839;SHT31;67034;43.226;27.932;2023-03-03T06:12:55;5.49;77.30
77839;SHT31;67034;43.226;27.932;2023-03-03T06:15:20;5.58;76.98
77839;SHT31;67034;43.226;27.932;2023-03-03T06:17:46;5.65;76.87
77839;SHT31;67034;43.226;27.932;2023-03-03T06:20:12;5.70;76.88
77839;SHT31;67034;43.226;27.932;2023-03-03T06:22:38;5.73;76.59
77839;SHT31;67034;43.226;27.932;2023-03-03T06:25:05;5.70;76.49
77839;SHT31;67034;43.226;27.932;2023-03-03T06:27:31;5.65;76.76
77839;SHT31;67034;43.226;27.932;2023-03-03T06:29:57;5.63;77.65
77839;SHT31;67034;43.226;27.932;2023-03-03T06:32:22;5.74;77.76
77839;SHT31;67034;43.226;27.932;2023-03-03T06:34:48;5.87;77.90
77839;SHT31;67034;43.226;27.932;2023-03-03T06:37:14;5.96;77.43
77839;SHT31;67034;43.226;27.932;2023-03-03T06:39:39;6.06;76.82
77839;SHT31;67034;43.226;27.932;2023-03-03T06:42:06;6.10;74.73
77839;SHT31;67034;43.226;27.932;2023-03-03T06:44:34;6.22;74.22
77839;SHT31;67034;43.226;27.932;2023-03-03T06:46:59;6.37;72.40
77839;SHT31;67034;43.226;27.932;2023-03-03T06:49:25;6.37;72.87
77839;SHT31;67034;43.226;27.932;2023-03-03T06:51:51;6.35;75.83
77839;SHT31;67034;43.226;27.932;2023-03-03T06:54:18;6.34;73.93
77839;SHT31;67034;43.226;27.932;2023-03-03T06:56:45;6.27;73.96
77839;SHT31;67034;43.226;27.932;2023-03-03T06:59:14;6.38;73.47
77839;SHT31;67034;43.226;27.932;2023-03-03T07:01:41;6.46;73.42
77839;SHT31;67034;43.226;27.932;2023-03-03T07:04:14;6.42;73.50
77839;SHT31;67034;43.226;27.932;2023-03-03T07:06:40;6.45;73.70
77839;SHT31;67034;43.226;27.932;2023-03-03T07:09:07;6.56;72.73
77839;SHT31;67034;43.226;27.932;2023-03-03T07:11:38;6.61;72.78
77839;SHT31;67034;43.226;27.932;2023-03-03T07:14:14;6.59;72.81
77839;SHT31;67034;43.226;27.932;2023-03-03T07:16:40;6.73;71.92
77839;SHT31;67034;43.226;27.932;2023-03-03T07:19:08;6.69;72.22
77839;SHT31;67034;43.226;27.932;2023-03-03T07:21:40;6.61;72.07
77839;SHT31;67034;43.226;27.932;2023-03-03T07:24:21;6.68;71.79
77839;SHT31;67034;43.226;27.932;2023-03-03T07:26:50;6.71;71.59
77839;SHT31;67034;43.226;27.932;2023-03-03T07:29:21;6.87;70.92
77839;SHT31;67034;43.226;27.932;2023-03-03T07:31:49;6.92;71.29
77839;SHT31;67034;43.226;27.932;2023-03-03T07:34:19;7.04;70.15
77839;SHT31;67034;43.226;27.932;2023-03-03T07:36:46;7.06;69.77
77839;SHT31;67034;43.226;27.932;2023-03-03T07:39:30;7.03;70.22
77839;SHT31;67034;43.226;27.932;2023-03-03T07:42:02;7.20;69.08
77839;SHT31;67034;43.226;27.932;2023-03-03T07:44:36;7.26;69.39
77839;SHT31;67034;43.226;27.932;2023-03-03T07:47:14;7.30;69.68
77839;SHT31;67034;43.226;27.932;2023-03-03T07:49:40;7.54;68.61
77839;SHT31;67034;43.226;27.932;2023-03-03T07:52:16;7.55;68.44
77839;SHT31;67034;43.226;27.932;2023-03-03T07:54:43;7.31;68.90
77839;SHT31;67034;43.226;27.932;2023-03-03T07:57:20;7.50;68.28
77839;SHT31;67034;43.226;27.932;2023-03-03T07:59:51;7.51;68.06
77839;SHT31;67034;43.226;27.932;2023-03-03T08:02:32;7.51;68.66
77839;SHT31;67034;43.226;27.932;2023-03-03T08:04:59;7.78;66.51
77839;SHT31;67034;43.226;27.932;2023-03-03T08:07:24;7.69;67.11
77839;SHT31;67034;43.226;27.932;2023-03-03T08:09:51;7.74;67.73
77839;SHT31;67034;43.226;27.932;2023-03-03T08:12:30;8.02;65.83
77839;SHT31;67034;43.226;27.932;2023-03-03T08:15:14;7.83;66.68
77839;SHT31;67034;43.226;27.932;2023-03-03T08:17:41;7.78;66.86
77839;SHT31;67034;43.226;27.932;2023-03-03T08:20:36;8.05;65.92
77839;SHT31;67034;43.226;27.932;2023-03-03T08:23:03;8.14;65.97
77839;SHT31;67034;43.226;27.932;2023-03-03T08:25:29;8.29;65.39
77839;SHT31;67034;43.226;27.932;2023-03-03T08:27:55;8.29;65.28
77839;SHT31;67034;43.226;27.932;2023-03-03T08:30:22;8.50;62.60
77839;SHT31;67034;43.226;27.932;2023-03-03T08:32:48;8.51;62.50
77839;SHT31;67034;43.226;27.932;2023-03-03T08:35:13;8.63;62.36
77839;SHT31;67034;43.226;27.932;2023-03-03T08:37:39;8.75;62.75
77839;SHT31;67034;43.226;27.932;2023-03-03T08:40:06;8.74;62.49
77839;SHT31;67034;43.226;27.932;2023-03-03T08:42:32;8.65;62.70
77839;SHT31;67034;43.226;27.932;2023-03-03T08:44:58;8.41;63.46
77839;SHT31;67034;43.226;27.932;2023-03-03T08:47:25;8.47;63.40
77839;SHT31;67034;43.226;27.932;2023-03-03T08:49:50;8.51;63.16
77839;SHT31;67034;43.226;27.932;2023-03-03T08:52:16;8.60;63.21
77839;SHT31;67034;43.226;27.932;2023-03-03T08:54:42;8.81;62.35
77839;SHT31;67034;43.226;27.932;2023-03-03T08:57:07;8.47;63.04
77839;SHT31;67034;43.226;27.932;2023-03-03T08:59:33;8.29;64.62
77839;SHT31;67034;43.226;27.932;2023-03-03T09:02:03;8.33;64.71
77839;SHT31;67034;43.226;27.932;2023-03-03T09:04:30;8.43;65.57
77839;SHT31;67034;43.226;27.932;2023-03-03T09:06:56;8.61;65.48
77839;SHT31;67034;43.226;27.932;2023-03-03T09:09:22;8.71;64.35
77839;SHT31;67034;43.226;27.932;2023-03-03T09:11:48;8.88;64.93
77839;SHT31;67034;43.226;27.932;2023-03-03T09:14:15;8.78;64.12
77839;SHT31;67034;43.226;27.932;2023-03-03T09:16:51;8.76;64.46
77839;SHT31;67034;43.226;27.932;2023-03-03T09:19:21;8.92;64.66
77839;SHT31;67034;43.226;27.932;2023-03-03T09:21:49;8.74;63.65
77839;SHT31;67034;43.226;27.932;2023-03-03T09:24:23;8.63;63.54
77839;SHT31;67034;43.226;27.932;2023-03-03T09:26:49;8.50;64.50
77839;SHT31;67034;43.226;27.932;2023-03-03T09:29:23;8.37;64.39
77839;SHT31;67034;43.226;27.932;2023-03-03T09:31:50;8.53;65.08
77839;SHT31;67034;43.226;27.932;2023-03-03T09:34:21;8.34;64.41
77839;SHT31;67034;43.226;27.932;2023-03-03T09:36:52;8.33;65.45
77839;SHT31;67034;43.226;27.932;2023-03-03T09:39:19;8.44;64.76
77839;SHT31;67034;43.226;27.932;2023-03-03T09:45:24;8.38;65.03
77839;SHT31;67034;43.226;27.932;2023-03-03T09:48:21;8.55;64.36
77839;SHT31;67034;43.226;27.932;2023-03-03T09:50:56;8.38;64.85
77839;SHT31;67034;43.226;27.932;2023-03-03T09:53:36;8.50;65.84
77839;SHT31;67034;43.226;27.932;2023-03-03T09:56:09;8.72;65.31
77839;SHT31;67034;43.226;27.932;2023-03-03T09:58:45;8.88;63.45
77839;SHT31;67034;43.226;27.932;2023-03-03T10:01:37;8.89;63.60
77839;SHT31;67034;43.226;27.932;2023-03-03T10:04:17;9.12;65.01
77839;SHT31;67034;43.226;27.932;2023-03-03T10:06:53;9.11;63.92
77839;SHT31;67034;43.226;27.932;2023-03-03T10:09:47;9.24;62.94
77839;SHT31;67034;43.226;27.932;2023-03-03T10:12:23;9.27;63.13
77839;SHT31;67034;43.226;27.932;2023-03-03T10:15:09;9.33;62.46
77839;SHT31;67034;43.226;27.932;2023-03-03T10:17:48;9.23;61.94
77839;SHT31;67034;43.226;27.932;2023-03-03T10:20:24;8.95;63.01
77839;SHT31;67034;43.226;27.932;2023-03-03T10:22:54;8.85;63.97
77839;SHT31;67034;43.226;27.932;2023-03-03T10:25:31;8.92;63.92
77839;SHT31;67034;43.226;27.932;2023-03-03T10:28:15;9.01;64.33
77839;SHT31;67034;43.226;27.932;2023-03-03T10:30:48;9.19;63.71
77839;SHT31;67034;43.226;27.932;2023-03-03T10:33:23;9.33;63.37
77839;SHT31;67034;43.226;27.932;2023-03-03T10:36:07;9.27;64.56
77839;SHT31;67034;43.226;27.932;2023-03-03T10:38:53;9.48;63.76
77839;SHT31;67034;43.226;27.932;2023-03-03T10:41:51;9.78;62.46
77839;SHT31;67034;43.226;27.932;2023-03-03T10:44:31;9.33;62.22
77839;SHT31;67034;43.226;27.932;2023-03-03T10:47:09;8.76;63.07
77839;SHT31;67034;43.226;27.932;2023-03-03T10:49:48;8.57;64.94
77839;SHT31;67034;43.226;27.932;2023-03-03T10:52:30;8.50;65.13
77839;SHT31;67034;43.226;27.932;2023-03-03T10:55:30;8.84;65.25
77839;SHT31;67034;43.226;27.932;2023-03-03T10:58:20;8.64;65.44
77839;SHT31;67034;43.226;27.932;2023-03-03T11:00:52;8.88;64.39
77839;SHT31;67034;43.226;27.932;2023-03-03T11:03:54;9.05;64.60
77839;SHT31;67034;43.226;27.932;2023-03-03T11:06:27;9.32;65.06
77839;SHT31;67034;43.226;27.932;2023-03-03T11:08:55;9.73;62.55
77839;SHT31;67034;43.226;27.932;2023-03-03T11:11:33;9.50;62.40
77839;SHT31;67034;43.226;27.932;2023-03-03T11:14:10;9.70;63.02
77839;SHT31;67034;43.226;27.932;2023-03-03T11:16:46;10.20;61.19
77839;SHT31;67034;43.226;27.932;2023-03-03T11:19:35;10.66;60.05
77839;SHT31;67034;43.226;27.932;2023-03-03T11:22:13;10.53;60.41
77839;SHT31;67034;43.226;27.932;2023-03-03T11:24:50;10.15;59.71
77839;SHT31;67034;43.226;27.932;2023-03-03T11:27:35;9.65;61.71
77839;SHT31;67034;43.226;27.932;2023-03-03T11:30:25;9.64;62.94
77839;SHT31;67034;43.226;27.932;2023-03-03T11:33:00;9.69;63.22
77839;SHT31;67034;43.226;27.932;2023-03-03T11:35:34;9.91;62.03
77839;SHT31;67034;43.226;27.932;2023-03-03T11:38:12;9.91;62.11
77839;SHT31;67034;43.226;27.932;2023-03-03T11:40:47;10.13;62.38
77839;SHT31;67034;43.226;27.932;2023-03-03T11:43:17;10.26;60.68
77839;SHT31;67034;43.226;27.932;2023-03-03T11:45:47;10.71;59.66
77839;SHT31;67034;43.226;27.932;2023-03-03T11:48:17;10.96;57.31
77839;SHT31;67034;43.226;27.932;2023-03-03T11:50:52;10.87;58.52
77839;SHT31;67034;43.226;27.932;2023-03-03T11:53:31;11.21;57.03
77839;SHT31;67034;43.226;27.932;2023-03-03T11:56:12;11.63;57.23
77839;SHT31;67034;43.226;27.932;2023-03-03T11:58:44;11.89;54.82
77839;SHT31;67034;43.226;27.932;2023-03-03T12:01:19;11.19;56.97
77839;SHT31;67034;43.226;27.932;2023-03-03T12:03:48;10.57;57.97
77839;SHT31;67034;43.226;27.932;2023-03-03T12:06:23;10.71;58.50
77839;SHT31;67034;43.226;27.932;2023-03-03T12:09:06;10.53;59.75
77839;SHT31;67034;43.226;27.932;2023-03-03T12:11:40;10.74;59.83
77839;SHT31;67034;43.226;27.932;2023-03-03T12:14:12;10.83;58.15
77839;SHT31;67034;43.226;27.932;2023-03-03T12:16:50;11.01;58.85
77839;SHT31;67034;43.226;27.932;2023-03-03T12:19:26;11.28;57.43
77839;SHT31;67034;43.226;27.932;2023-03-03T12:22:07;11.24;58.39
77839;SHT31;67034;43.226;27.932;2023-03-03T12:24:45;11.22;57.15
77839;SHT31;67034;43.226;27.932;2023-03-03T12:27:20;11.54;58.07
77839;SHT31;67034;43.226;27.932;2023-03-03T12:29:56;11.89;55.52
77839;SHT31;67034;43.226;27.932;2023-03-03T12:32:36;11.19;56.80
77839;SHT31;67034;43.226;27.932;2023-03-03T12:35:10;11.19;58.45
77839;SHT31;67034;43.226;27.932;2023-03-03T12:37:47;11.52;56.53
77839;SHT31;67034;43.226;27.932;2023-03-03T12:40:19;11.14;58.27
77839;SHT31;67034;43.226;27.932;2023-03-03T12:43:09;11.19;58.72
77839;SHT31;67034;43.226;27.932;2023-03-03T12:45:43;11.24;58.31
77839;SHT31;67034;43.226;27.932;2023-03-03T12:48:15;11.15;58.22
77839;SHT31;67034;43.226;27.932;2023-03-03T12:50:50;10.96;58.44
77839;SHT31;67034;43.226;27.932;2023-03-03T12:53:30;10.91;59.03
77839;SHT31;67034;43.226;27.932;2023-03-03T12:56:02;10.73;58.60
77839;SHT31;67034;43.226;27.932;2023-03-03T12:58:36;10.57;57.92
77839;SHT31;67034;43.226;27.932;2023-03-03T13:01:17;10.18;59.90
77839;SHT31;67034;43.226;27.932;2023-03-03T13:03:52;10.15;60.92
77839;SHT31;67034;43.226;27.932;2023-03-03T13:06:26;9.80;61.66
77839;SHT31;67034;43.226;27.932;2023-03-03T13:09:16;9.82;62.59
77839;SHT31;67034;43.226;27.932;2023-03-03T13:11:54;9.95;62.32
77839;SHT31;67034;43.226;27.932;2023-03-03T13:14:30;9.82;61.97
77839;SHT31;67034;43.226;27.932;2023-03-03T13:17:14;9.09;63.93
77839;SHT31;67034;43.226;27.932;2023-03-03T13:19:47;8.95;65.10
77839;SHT31;67034;43.226;27.932;2023-03-03T13:22:17;8.85;64.64
77839;SHT31;67034;43.226;27.932;2023-03-03T13:24:57;8.45;65.76
77839;SHT31;67034;43.226;27.932;2023-03-03T13:27:29;8.19;65.90
77839;SHT31;67034;43.226;27.932;2023-03-03T13:29:59;8.24;66.65
77839;SHT31;67034;43.226;27.932;2023-03-03T13:32:34;8.40;67.06
77839;SHT31;67034;43.226;27.932;2023-03-03T13:35:07;8.50;66.47
77839;SHT31;67034;43.226;27.932;2023-03-03T13:37:36;8.57;66.38
77839;SHT31;67034;43.226;27.932;2023-03-03T13:40:13;8.60;67.51
77839;SHT31;67034;43.226;27.932;2023-03-03T13:42:44;8.69;66.60
77839;SHT31;67034;43.226;27.932;2023-03-03T13:45:16;8.67;67.56
77839;SHT31;67034;43.226;27.932;2023-03-03T13:47:48;8.69;66.94
77839;SHT31;67034;43.226;27.932;2023-03-03T13:50:22;8.69;67.41
77839;SHT31;67034;43.226;27.932;2023-03-03T13:53:04;8.67;66.68
77839;SHT31;67034;43.226;27.932;2023-03-03T13:55:36;8.75;66.67
77839;SHT31;67034;43.226;27.932;2023-03-03T13:58:11;8.63;67.43
77839;SHT31;67034;43.226;27.932;2023-03-03T14:00:50;8.61;68.21
77839;SHT31;67034;43.226;27.932;2023-03-03T14:03:37;8.68;66.39
77839;SHT31;67034;43.226;27.932;2023-03-03T14:06:12;8.64;66.36
77839;SHT31;67034;43.226;27.932;2023-03-03T14:08:51;8.53;68.60
77839;SHT31;67034;43.226;27.932;2023-03-03T14:11:22;8.64;67.21
77839;SHT31;67034;43.226;27.932;2023-03-03T14:13:57;8.68;67.05
77839;SHT31;67034;43.226;27.932;2023-03-03T14:16:38;8.54;67.34
77839;SHT31;67034;43.226;27.932;2023-03-03T14:19:08;8.19;68.57
77839;SHT31;67034;43.226;27.932;2023-03-03T14:21:44;8.00;70.04
77839;SHT31;67034;43.226;27.932;2023-03-03T14:24:16;8.00;70.60
77839;SHT31;67034;43.226;27.932;2023-03-03T14:26:47;7.97;70.87
77839;SHT31;67034;43.226;27.932;2023-03-03T14:29:21;7.85;71.91
77839;SHT31;67034;43.226;27.932;2023-03-03T14:31:47;7.92;71.17
77839;SHT31;67034;43.226;27.932;2023-03-03T14:34:14;7.92;70.12
77839;SHT31;67034;43.226;27.932;2023-03-03T14:36:59;7.95;71.48
77839;SHT31;67034;43.226;27.932;2023-03-03T14:39:34;7.95;71.95
77839;SHT31;67034;43.226;27.932;2023-03-03T14:42:01;7.90;71.76
77839;SHT31;67034;43.226;27.932;2023-03-03T14:44:34;7.95;72.08
77839;SHT31;67034;43.226;27.932;2023-03-03T14:47:04;7.90;72.67
77839;SHT31;67034;43.226;27.932;2023-03-03T14:49:32;7.96;71.98
77839;SHT31;67034;43.226;27.932;2023-03-03T14:52:03;7.89;72.44
77839;SHT31;67034;43.226;27.932;2023-03-03T14:54:38;7.69;72.96
77839;SHT31;67034;43.226;27.932;2023-03-03T14:57:11;7.48;73.70
77839;SHT31;67034;43.226;27.932;2023-03-03T14:59:37;7.51;74.43
77839;SHT31;67034;43.226;27.932;2023-03-03T15:02:35;7.48;74.58
77839;SHT31;67034;43.226;27.932;2023-03-03T15:05:16;7.45;74.88
77839;SHT31;67034;43.226;27.932;2023-03-03T15:07:45;7.41;74.93
77839;SHT31;67034;43.226;27.932;2023-03-03T15:10:11;7.44;75.37
77839;SHT31;67034;43.226;27.932;2023-03-03T15:12:39;7.38;75.34
77839;SHT31;67034;43.226;27.932;2023-03-03T15:15:16;7.24;76.30
77839;SHT31;67034;43.226;27.932;2023-03-03T15:17:53;7.10;77.61
77839;SHT31;67034;43.226;27.932;2023-03-03T15:20:29;7.10;77.47
77839;SHT31;67034;43.226;27.932;2023-03-03T15:23:11;7.13;78.78
77839;SHT31;67034;43.226;27.932;2023-03-03T15:25:43;7.10;79.24
77839;SHT31;67034;43.226;27.932;2023-03-03T15:28:35;7.13;79.60
77839;SHT31;67034;43.226;27.932;2023-03-03T15:31:09;7.17;79.37
77839;SHT31;67034;43.226;27.932;2023-03-03T15:33:45;7.30;77.78
77839;SHT31;67034;43.226;27.932;2023-03-03T15:36:16;7.28;77.52
77839;SHT31;67034;43.226;27.932;2023-03-03T15:38:55;7.17;77.68
77839;SHT31;67034;43.226;27.932;2023-03-03T15:41:33;7.04;78.25
77839;SHT31;67034;43.226;27.932;2023-03-03T15:44:14;7.03;78.61
77839;SHT31;67034;43.226;27.932;2023-03-03T15:52:55;6.87;79.48
77839;SHT31;67034;43.226;27.932;2023-03-03T15:55:41;6.82;80.23
77839;SHT31;67034;43.226;27.932;2023-03-03T15:58:29;6.76;80.20
77839;SHT31;67034;43.226;27.932;2023-03-03T16:01:04;6.75;81.43
77839;SHT31;67034;43.226;27.932;2023-03-03T16:03:37;6.75;81.37
77839;SHT31;67034;43.226;27.932;2023-03-03T16:06:06;6.80;80.88
77839;SHT31;67034;43.226;27.932;2023-03-03T16:08:43;6.75;80.96